sensor_id;sensor_type;location;lat;lon;timestamp;P1;durP1;ratioP1;P2;durP2;ratioP2
17985;SDS011;9118;48.122;11.546;2023-03-03T00:01:07;49.60;;;23.03;;
17985;SDS011;9118;48.122;11.546;2023-03-03T00:03:34;50.50;;;23.20;;
17985;SDS011;9118;48.122;11.546;2023-03-03T00:06:01;45.97;;;23.03;;
17985;SDS011;9118;48.122;11.546;2023-03-03T00:08:31;49.90;;;22.30;;
17985;SDS011;9118;48.122;11.546;2023-03-03T00:11:00;45.30;;;22.23;;
17985;SDS011;9118;48.122;11.546;2023-03-03T00:13:31;48.03;;;21.77;;
17985;SDS011;9118;48.122;11.546;2023-03-03T00:16:16;44.83;;;21.90;;
17985;SDS011;9118;48.122;11.546;2023-03-03T00:18:49;47.13;;;22.53;;
17985;SDS011;9118;48.122;11.546;2023-03-03T00:24:14;48.80;;;22.37;;
17985;SDS011;9118;48.122;11.546;2023-03-03T00:26:45;45.70;;;22.50;;
17985;SDS011;9118;48.122;11.546;2023-03-03T00:29:22;49.00;;;22.93;;
17985;SDS011;9118;48.122;11.546;2023-03-03T00:32:07;48.97;;;23.80;;
17985;SDS011;9118;48.122;11.546;2023-03-03T00:34:45;48.30;;;22.83;;
17985;SDS011;9118;48.122;11.546;2023-03-03T00:37:21;47.50;;;22.50;;
17985;SDS011;9118;48.122;11.546;2023-03-03T00:39:52;49.77;;;22.93;;
17985;SDS011;9118;48.122;11.546;2023-03-03T00:42:20;48.33;;;23.03;;
17985;SDS011;9118;48.122;11.546;2023-03-03T00:44:52;44.47;;;22.13;;
17985;SDS011;9118;48.122;11.546;2023-03-03T00:47:25;51.03;;;22.93;;
17985;SDS011;9118;48.122;11.546;2023-03-03T00:50:13;51.40;;;23.47;;
17985;SDS011;9118;48.122;11.546;2023-03-03T00:52:52;46.13;;;21.90;;
17985;SDS011;9118;48.122;11.546;2023-03-03T00:55:30;47.83;;;22.80;;
17985;SDS011;9118;48.122;11.546;2023-03-03T00:57:59;45.00;;;21.70;;
17985;SDS011;9118;48.122;11.546;2023-03-03T01:00:28;53.00;;;22.53;;
17985;SDS011;9118;48.122;11.546;2023-03-03T01:02:57;47.07;;;24.03;;
17985;SDS011;9118;48.122;11.546;2023-03-03T01:05:27;46.63;;;22.93;;
17985;SDS011;9118;48.122;11.546;2023-03-03T01:07:56;45.60;;;23.17;;
17985;SDS011;9118;48.122;11.546;2023-03-03T01:10:25;49.03;;;23.13;;
17985;SDS011;9118;48.122;11.546;2023-03-03T01:12:54;46.60;;;22.17;;
17985;SDS011;9118;48.122;11.546;2023-03-03T01:15:26;45.43;;;22.07;;
17985;SDS011;9118;48.122;11.546;2023-03-03T01:17:54;52.27;;;23.13;;
17985;SDS011;9118;48.122;11.546;2023-03-03T01:20:24;45.33;;;22.80;;
17985;SDS011;9118;48.122;11.546;2023-03-03T01:22:52;50.57;;;23.80;;
17985;SDS011;9118;48.122;11.546;2023-03-03T01:25:19;48.93;;;22.27;;
17985;SDS011;9118;48.122;11.546;2023-03-03T01:27:46;49.53;;;23.20;;
17985;SDS011;9118;48.122;11.546;2023-03-03T01:30:15;48.30;;;23.30;;
17985;SDS011;9118;48.122;11.546;2023-03-03T01:32:43;49.00;;;23.10;;
17985;SDS011;9118;48.122;11.546;2023-03-03T01:35:12;55.17;;;23.23;;
17985;SDS011;9118;48.122;11.546;2023-03-03T01:37:43;46.67;;;22.00;;
17985;SDS011;9118;48.122;11.546;2023-03-03T01:40:15;49.10;;;22.43;;
17985;SDS011;9118;48.122;11.546;2023-03-03T01:42:45;50.70;;;23.13;;
17985;SDS011;9118;48.122;11.546;2023-03-03T01:45:20;49.10;;;22.30;;
17985;SDS011;9118;48.122;11.546;2023-03-03T01:47:53;45.53;;;22.93;;
17985;SDS011;9118;48.122;11.546;2023-03-03T01:50:36;49.53;;;22.73;;
17985;SDS011;9118;48.122;11.546;2023-03-03T01:53:30;48.43;;;21.90;;
17985;SDS011;9118;48.122;11.546;2023-03-03T01:56:03;50.20;;;23.13;;
17985;SDS011;9118;48.122;11.546;2023-03-03T01:58:33;48.57;;;22.37;;
17985;SDS011;9118;48.122;11.546;2023-03-03T02:01:11;55.73;;;23.37;;
17985;SDS011;9118;48.122;11.546;2023-03-03T02:03:44;47.13;;;23.97;;
17985;SDS011;9118;48.122;11.546;2023-03-03T02:06:13;47.47;;;23.93;;
17985;SDS011;9118;48.122;11.546;2023-03-03T02:08:50;48.83;;;23.17;;
17985;SDS011;9118;48.122;11.546;2023-03-03T02:11:24;49.27;;;23.73;;
17985;SDS011;9118;48.122;11.546;2023-03-03T02:14:02;49.80;;;23.00;;
17985;SDS011;9118;48.122;11.546;2023-03-03T02:16:30;46.97;;;22.03;;
17985;SDS011;9118;48.122;11.546;2023-03-03T02:18:58;48.60;;;21.43;;
17985;SDS011;9118;48.122;11.546;2023-03-03T02:21:28;48.13;;;22.33;;
17985;SDS011;9118;48.122;11.546;2023-03-03T02:23:59;47.33;;;23.17;;
17985;SDS011;9118;48.122;11.546;2023-03-03T02:26:36;44.60;;;23.10;;
17985;SDS011;9118;48.122;11.546;2023-03-03T02:29:06;46.53;;;23.57;;
17985;SDS011;9118;48.122;11.546;2023-03-03T02:31:34;45.33;;;22.60;;
17985;SDS011;9118;48.122;11.546;2023-03-03T02:34:03;50.50;;;22.40;;
17985;SDS011;9118;48.122;11.546;2023-03-03T02:36:33;47.77;;;22.83;;
17985;SDS011;9118;48.122;11.546;2023-03-03T02:39:02;47.77;;;22.93;;
17985;SDS011;9118;48.122;11.546;2023-03-03T02:41:32;47.67;;;22.67;;
17985;SDS011;9118;48.122;11.546;2023-03-03T02:44:05;46.17;;;22.20;;
17985;SDS011;9118;48.122;11.546;2023-03-03T02:46:34;51.07;;;23.10;;
17985;SDS011;9118;48.122;11.546;2023-03-03T02:49:03;48.73;;;23.23;;
17985;SDS011;9118;48.122;11.546;2023-03-03T02:51:31;50.80;;;22.93;;
17985;SDS011;9118;48.122;11.546;2023-03-03T02:53:59;45.80;;;23.03;;
17985;SDS011;9118;48.122;11.546;2023-03-03T02:56:27;44.33;;;21.50;;
17985;SDS011;9118;48.122;11.546;2023-03-03T02:58:55;44.03;;;21.97;;
17985;SDS011;9118;48.122;11.546;2023-03-03T03:01:22;47.50;;;22.80;;
17985;SDS011;9118;48.122;11.546;2023-03-03T03:03:50;51.43;;;22.13;;
17985;SDS011;9118;48.122;11.546;2023-03-03T03:06:17;48.30;;;23.40;;
17985;SDS011;9118;48.122;11.546;2023-03-03T03:08:44;45.97;;;24.20;;
17985;SDS011;9118;48.122;11.546;2023-03-03T03:11:11;48.40;;;24.47;;
17985;SDS011;9118;48.122;11.546;2023-03-03T03:13:38;48.53;;;22.70;;
17985;SDS011;9118;48.122;11.546;2023-03-03T03:16:06;43.73;;;22.17;;
17985;SDS011;9118;48.122;11.546;2023-03-03T03:18:33;48.80;;;23.03;;
17985;SDS011;9118;48.122;11.546;2023-03-03T03:21:07;44.60;;;22.43;;
17985;SDS011;9118;48.122;11.546;2023-03-03T03:23:36;41.90;;;20.90;;
17985;SDS011;9118;48.122;11.546;2023-03-03T03:26:03;47.60;;;22.13;;
17985;SDS011;9118;48.122;11.546;2023-03-03T03:28:31;50.13;;;22.83;;
17985;SDS011;9118;48.122;11.546;2023-03-03T03:30:59;46.00;;;22.37;;
17985;SDS011;9118;48.122;11.546;2023-03-03T03:33:27;46.90;;;23.23;;
17985;SDS011;9118;48.122;11.546;2023-03-03T03:35:54;46.53;;;22.43;;
17985;SDS011;9118;48.122;11.546;2023-03-03T03:38:22;44.30;;;22.30;;
17985;SDS011;9118;48.122;11.546;2023-03-03T03:40:49;48.07;;;22.53;;
17985;SDS011;9118;48.122;11.546;2023-03-03T03:43:16;47.10;;;22.03;;
17985;SDS011;9118;48.122;11.546;2023-03-03T03:45:43;47.27;;;22.60;;
17985;SDS011;9118;48.122;11.546;2023-03-03T03:48:10;45.53;;;22.67;;
17985;SDS011;9118;48.122;11.546;2023-03-03T03:50:39;47.90;;;23.27;;
17985;SDS011;9118;48.122;11.546;2023-03-03T03:53:07;46.67;;;22.90;;
17985;SDS011;9118;48.122;11.546;2023-03-03T03:55:34;49.63;;;23.80;;
17985;SDS011;9118;48.122;11.546;2023-03-03T03:58:01;48.10;;;23.63;;
17985;SDS011;9118;48.122;11.546;2023-03-03T04:00:28;47.87;;;23.07;;
17985;SDS011;9118;48.122;11.546;2023-03-03T04:02:55;44.50;;;22.67;;
17985;SDS011;9118;48.122;11.546;2023-03-03T04:05:22;46.13;;;22.57;;
17985;SDS011;9118;48.122;11.546;2023-03-03T04:07:51;47.33;;;23.10;;
17985;SDS011;9118;48.122;11.546;2023-03-03T04:10:18;48.03;;;21.77;;
17985;SDS011;9118;48.122;11.546;2023-03-03T04:12:45;44.77;;;21.87;;
17985;SDS011;9118;48.122;11.546;2023-03-03T04:15:12;50.40;;;22.80;;
17985;SDS011;9118;48.122;11.546;2023-03-03T04:17:40;45.07;;;22.10;;
17985;SDS011;9118;48.122;11.546;2023-03-03T04:20:09;45.53;;;23.10;;
17985;SDS011;9118;48.122;11.546;2023-03-03T04:22:39;44.33;;;22.43;;
17985;SDS011;9118;48.122;11.546;2023-03-03T04:25:08;44.50;;;22.10;;
17985;SDS011;9118;48.122;11.546;2023-03-03T04:27:39;45.60;;;23.90;;
17985;SDS011;9118;48.122;11.546;2023-03-03T04:30:07;51.40;;;24.80;;
17985;SDS011;9118;48.122;11.546;2023-03-03T04:32:36;47.97;;;23.10;;
17985;SDS011;9118;48.122;11.546;2023-03-03T04:35:03;44.50;;;22.90;;
17985;SDS011;9118;48.122;11.546;2023-03-03T04:37:31;43.87;;;23.07;;
17985;SDS011;9118;48.122;11.546;2023-03-03T04:39:58;51.73;;;23.57;;
17985;SDS011;9118;48.122;11.546;2023-03-03T04:42:27;48.80;;;22.90;;
17985;SDS011;9118;48.122;11.546;2023-03-03T04:44:54;54.50;;;23.73;;
17985;SDS011;9118;48.122;11.546;2023-03-03T04:47:22;46.70;;;23.60;;
17985;SDS011;9118;48.122;11.546;2023-03-03T04:49:50;47.23;;;23.93;;
17985;SDS011;9118;48.122;11.546;2023-03-03T04:52:17;43.77;;;23.17;;
17985;SDS011;9118;48.122;11.546;2023-03-03T04:54:44;47.63;;;24.00;;
17985;SDS011;9118;48.122;11.546;2023-03-03T04:57:11;49.40;;;23.60;;
17985;SDS011;9118;48.122;11.546;2023-03-03T04:59:40;46.07;;;23.37;;
17985;SDS011;9118;48.122;11.546;2023-03-03T05:02:07;48.00;;;22.93;;
17985;SDS011;9118;48.122;11.546;2023-03-03T05:04:34;48.80;;;23.53;;
17985;SDS011;9118;48.122;11.546;2023-03-03T05:07:01;48.60;;;22.87;;
17985;SDS011;9118;48.122;11.546;2023-03-03T05:09:29;49.50;;;24.13;;
17985;SDS011;9118;48.122;11.546;2023-03-03T05:11:56;50.60;;;24.67;;
17985;SDS011;9118;48.122;11.546;2023-03-03T05:14:23;48.13;;;24.93;;
17985;SDS011;9118;48.122;11.546;2023-03-03T05:16:53;51.03;;;24.67;;
17985;SDS011;9118;48.122;11.546;2023-03-03T05:19:20;50.20;;;24.03;;
17985;SDS011;9118;48.122;11.546;2023-03-03T05:21:48;50.13;;;24.03;;
17985;SDS011;9118;48.122;11.546;2023-03-03T05:24:15;52.07;;;24.47;;
17985;SDS011;9118;48.122;11.546;2023-03-03T05:26:42;48.47;;;24.33;;
17985;SDS011;9118;48.122;11.546;2023-03-03T05:29:09;52.43;;;24.20;;
17985;SDS011;9118;48.122;11.546;2023-03-03T05:31:37;51.07;;;24.47;;
17985;SDS011;9118;48.122;11.546;2023-03-03T05:34:05;53.20;;;24.70;;
17985;SDS011;9118;48.122;11.546;2023-03-03T05:36:32;56.37;;;24.47;;
17985;SDS011;9118;48.122;11.546;2023-03-03T05:38:59;47.90;;;24.03;;
17985;SDS011;9118;48.122;11.546;2023-03-03T05:41:26;48.80;;;23.63;;
17985;SDS011;9118;48.122;11.546;2023-03-03T05:43:53;47.77;;;24.90;;
17985;SDS011;9118;48.122;11.546;2023-03-03T05:46:20;54.90;;;26.77;;
17985;SDS011;9118;48.122;11.546;2023-03-03T05:48:47;55.83;;;25.27;;
17985;SDS011;9118;48.122;11.546;2023-03-03T05:51:17;51.83;;;25.27;;
17985;SDS011;9118;48.122;11.546;2023-03-03T05:53:44;52.83;;;25.10;;
17985;SDS011;9118;48.122;11.546;2023-03-03T05:56:11;50.50;;;26.10;;
17985;SDS011;9118;48.122;11.546;2023-03-03T05:58:38;58.13;;;26.63;;
17985;SDS011;9118;48.122;11.546;2023-03-03T06:01:05;52.57;;;24.07;;
17985;SDS011;9118;48.122;11.546;2023-03-03T06:03:33;52.47;;;26.07;;
17985;SDS011;9118;48.122;11.546;2023-03-03T06:06:00;58.50;;;26.97;;
17985;SDS011;9118;48.122;11.546;2023-03-03T06:08:29;56.37;;;26.50;;
17985;SDS011;9118;48.122;11.546;2023-03-03T06:10:56;53.87;;;26.17;;
17985;SDS011;9118;48.122;11.546;2023-03-03T06:13:23;56.33;;;26.67;;
17985;SDS011;9118;48.122;11.546;2023-03-03T06:15:51;58.30;;;26.40;;
17985;SDS011;9118;48.122;11.546;2023-03-03T06:18:18;56.37;;;25.93;;
17985;SDS011;9118;48.122;11.546;2023-03-03T06:20:49;58.27;;;27.23;;
17985;SDS011;9118;48.122;11.546;2023-03-03T06:23:17;60.90;;;26.80;;
17985;SDS011;9118;48.122;11.546;2023-03-03T06:25:46;58.97;;;27.77;;
17985;SDS011;9118;48.122;11.546;2023-03-03T06:28:13;59.87;;;27.60;;
17985;SDS011;9118;48.122;11.546;2023-03-03T06:30:40;58.10;;;26.10;;
17985;SDS011;9118;48.122;11.546;2023-03-03T06:33:07;58.70;;;26.23;;
17985;SDS011;9118;48.122;11.546;2023-03-03T06:35:35;62.57;;;26.70;;
17985;SDS011;9118;48.122;11.546;2023-03-03T06:38:02;54.33;;;26.43;;
17985;SDS011;9118;48.122;11.546;2023-03-03T06:40:29;62.07;;;28.47;;
17985;SDS011;9118;48.122;11.546;2023-03-03T06:42:59;64.20;;;28.93;;
17985;SDS011;9118;48.122;11.546;2023-03-03T06:45:28;63.50;;;26.83;;
17985;SDS011;9118;48.122;11.546;2023-03-03T06:47:55;63.97;;;28.20;;
17985;SDS011;9118;48.122;11.546;2023-03-03T06:50:22;69.57;;;28.63;;
17985;SDS011;9118;48.122;11.546;2023-03-03T06:52:49;56.80;;;27.50;;
17985;SDS011;9118;48.122;11.546;2023-03-03T06:55:25;63.10;;;28.00;;
17985;SDS011;9118;48.122;11.546;2023-03-03T06:57:52;63.93;;;27.93;;
17985;SDS011;9118;48.122;11.546;2023-03-03T07:00:23;62.53;;;27.63;;
17985;SDS011;9118;48.122;11.546;2023-03-03T07:02:52;64.60;;;28.60;;
17985;SDS011;9118;48.122;11.546;2023-03-03T07:05:24;54.97;;;26.83;;
17985;SDS011;9118;48.122;11.546;2023-03-03T07:07:54;59.90;;;28.23;;
17985;SDS011;9118;48.122;11.546;2023-03-03T07:10:22;61.40;;;27.97;;
17985;SDS011;9118;48.122;11.546;2023-03-03T07:12:51;64.03;;;28.03;;
17985;SDS011;9118;48.122;11.546;2023-03-03T07:15:20;62.30;;;27.63;;
17985;SDS011;9118;48.122;11.546;2023-03-03T07:17:52;61.90;;;27.87;;
17985;SDS011;9118;48.122;11.546;2023-03-03T07:20:27;61.93;;;28.63;;
17985;SDS011;9118;48.122;11.546;2023-03-03T07:22:59;62.87;;;27.93;;
17985;SDS011;9118;48.122;11.546;2023-03-03T07:25:29;66.67;;;27.70;;
17985;SDS011;9118;48.122;11.546;2023-03-03T07:27:59;65.00;;;28.13;;
17985;SDS011;9118;48.122;11.546;2023-03-03T07:30:39;59.57;;;27.13;;
17985;SDS011;9118;48.122;11.546;2023-03-03T07:33:10;62.67;;;27.07;;
17985;SDS011;9118;48.122;11.546;2023-03-03T07:35:44;63.43;;;28.53;;
17985;SDS011;9118;48.122;11.546;2023-03-03T07:38:16;63.17;;;28.07;;
17985;SDS011;9118;48.122;11.546;2023-03-03T07:40:55;64.93;;;29.57;;
17985;SDS011;9118;48.122;11.546;2023-03-03T07:43:26;68.23;;;29.43;;
17985;SDS011;9118;48.122;11.546;2023-03-03T07:45:59;63.67;;;29.10;;
17985;SDS011;9118;48.122;11.546;2023-03-03T07:48:30;60.73;;;28.10;;
17985;SDS011;9118;48.122;11.546;2023-03-03T07:51:02;65.77;;;28.53;;
17985;SDS011;9118;48.122;11.546;2023-03-03T07:53:33;63.50;;;28.83;;
17985;SDS011;9118;48.122;11.546;2023-03-03T07:56:02;63.53;;;29.03;;
17985;SDS011;9118;48.122;11.546;2023-03-03T07:58:40;63.03;;;28.47;;
17985;SDS011;9118;48.122;11.546;2023-03-03T08:04:18;62.77;;;28.90;;
17985;SDS011;9118;48.122;11.546;2023-03-03T08:06:49;59.57;;;27.87;;
17985;SDS011;9118;48.122;11.546;2023-03-03T08:09:35;65.40;;;30.03;;
17985;SDS011;9118;48.122;11.546;2023-03-03T08:15:11;64.77;;;30.33;;
17985;SDS011;9118;48.122;11.546;2023-03-03T08:17:46;67.47;;;30.67;;
17985;SDS011;9118;48.122;11.546;2023-03-03T08:23:15;61.57;;;29.10;;
17985;SDS011;9118;48.122;11.546;2023-03-03T08:25:44;71.43;;;31.20;;
17985;SDS011;9118;48.122;11.546;2023-03-03T08:28:12;65.67;;;30.50;;
17985;SDS011;9118;48.122;11.546;2023-03-03T08:30:40;64.70;;;30.47;;
17985;SDS011;9118;48.122;11.546;2023-03-03T08:33:10;66.00;;;29.60;;
17985;SDS011;9118;48.122;11.546;2023-03-03T08:35:37;63.63;;;28.33;;
17985;SDS011;9118;48.122;11.546;2023-03-03T08:38:05;61.67;;;29.53;;
17985;SDS011;9118;48.122;11.546;2023-03-03T08:40:36;68.47;;;29.67;;
17985;SDS011;9118;48.122;11.546;2023-03-03T08:43:04;63.07;;;29.80;;
17985;SDS011;9118;48.122;11.546;2023-03-03T08:45:32;59.27;;;28.37;;
17985;SDS011;9118;48.122;11.546;2023-03-03T08:48:00;61.93;;;28.83;;
17985;SDS011;9118;48.122;11.546;2023-03-03T08:50:42;60.47;;;29.60;;
17985;SDS011;9118;48.122;11.546;2023-03-03T08:53:13;61.53;;;29.20;;
17985;SDS011;9118;48.122;11.546;2023-03-03T08:55:42;69.23;;;30.37;;
17985;SDS011;9118;48.122;11.546;2023-03-03T08:58:10;62.43;;;31.00;;
17985;SDS011;9118;48.122;11.546;2023-03-03T09:00:41;65.07;;;30.57;;
17985;SDS011;9118;48.122;11.546;2023-03-03T09:03:10;65.43;;;30.23;;
17985;SDS011;9118;48.122;11.546;2023-03-03T09:05:37;66.47;;;29.70;;
17985;SDS011;9118;48.122;11.546;2023-03-03T09:08:07;67.87;;;30.20;;
17985;SDS011;9118;48.122;11.546;2023-03-03T09:10:39;64.00;;;28.57;;
17985;SDS011;9118;48.122;11.546;2023-03-03T09:13:07;64.07;;;30.03;;
17985;SDS011;9118;48.122;11.546;2023-03-03T09:15:44;62.87;;;29.23;;
17985;SDS011;9118;48.122;11.546;2023-03-03T09:18:14;64.43;;;29.83;;
17985;SDS011;9118;48.122;11.546;2023-03-03T09:20:44;62.37;;;29.37;;
17985;SDS011;9118;48.122;11.546;2023-03-03T09:23:27;65.37;;;30.63;;
17985;SDS011;9118;48.122;11.546;2023-03-03T09:26:14;65.97;;;30.07;;
17985;SDS011;9118;48.122;11.546;2023-03-03T09:28:52;70.63;;;31.23;;
17985;SDS011;9118;48.122;11.546;2023-03-03T09:31:25;60.17;;;28.83;;
17985;SDS011;9118;48.122;11.546;2023-03-03T09:33:59;59.50;;;28.83;;
17985;SDS011;9118;48.122;11.546;2023-03-03T09:36:37;74.57;;;30.60;;
17985;SDS011;9118;48.122;11.546;2023-03-03T09:39:15;60.90;;;29.43;;
17985;SDS011;9118;48.122;11.546;2023-03-03T09:50:54;62.43;;;30.20;;
17985;SDS011;9118;48.122;11.546;2023-03-03T09:53:41;63.07;;;29.57;;
17985;SDS011;9118;48.122;11.546;2023-03-03T09:56:37;58.90;;;30.13;;
17985;SDS011;9118;48.122;11.546;2023-03-03T09:59:15;61.17;;;28.80;;
17985;SDS011;9118;48.122;11.546;2023-03-03T10:01:58;66.67;;;30.03;;
17985;SDS011;9118;48.122;11.546;2023-03-03T10:04:43;68.63;;;29.80;;
17985;SDS011;9118;48.122;11.546;2023-03-03T10:07:34;63.40;;;30.13;;
17985;SDS011;9118;48.122;11.546;2023-03-03T10:10:15;67.13;;;31.70;;
17985;SDS011;9118;48.122;11.546;2023-03-03T10:13:05;75.63;;;31.10;;
17985;SDS011;9118;48.122;11.546;2023-03-03T10:15:42;67.00;;;31.10;;
17985;SDS011;9118;48.122;11.546;2023-03-03T10:18:22;60.30;;;28.83;;
17985;SDS011;9118;48.122;11.546;2023-03-03T10:21:04;56.23;;;29.33;;
17985;SDS011;9118;48.122;11.546;2023-03-03T10:23:54;59.03;;;29.43;;
17985;SDS011;9118;48.122;11.546;2023-03-03T10:26:35;63.53;;;31.00;;
17985;SDS011;9118;48.122;11.546;2023-03-03T10:29:16;60.23;;;30.40;;
17985;SDS011;9118;48.122;11.546;2023-03-03T10:32:01;58.43;;;30.33;;
17985;SDS011;9118;48.122;11.546;2023-03-03T10:35:01;60.43;;;30.63;;
17985;SDS011;9118;48.122;11.546;2023-03-03T10:37:42;65.27;;;31.70;;
17985;SDS011;9118;48.122;11.546;2023-03-03T10:40:22;64.87;;;32.07;;
17985;SDS011;9118;48.122;11.546;2023-03-03T10:43:04;64.83;;;30.43;;
17985;SDS011;9118;48.122;11.546;2023-03-03T10:46:00;63.33;;;30.63;;
17985;SDS011;9118;48.122;11.546;2023-03-03T10:48:41;59.60;;;30.20;;
17985;SDS011;9118;48.122;11.546;2023-03-03T10:51:52;58.23;;;29.93;;
17985;SDS011;9118;48.122;11.546;2023-03-03T10:54:35;72.83;;;31.67;;
17985;SDS011;9118;48.122;11.546;2023-03-03T10:57:16;89.73;;;43.80;;
17985;SDS011;9118;48.122;11.546;2023-03-03T10:59:53;65.87;;;33.77;;
17985;SDS011;9118;48.122;11.546;2023-03-03T11:02:33;66.97;;;32.10;;
17985;SDS011;9118;48.122;11.546;2023-03-03T11:05:12;61.50;;;30.77;;
17985;SDS011;9118;48.122;11.546;2023-03-03T11:07:51;59.43;;;29.97;;
17985;SDS011;9118;48.122;11.546;2023-03-03T11:10:27;61.53;;;30.33;;
17985;SDS011;9118;48.122;11.546;2023-03-03T11:13:18;64.67;;;31.53;;
17985;SDS011;9118;48.122;11.546;2023-03-03T11:15:57;66.60;;;32.07;;
17985;SDS011;9118;48.122;11.546;2023-03-03T11:18:54;57.73;;;29.80;;
17985;SDS011;9118;48.122;11.546;2023-03-03T11:21:32;60.87;;;31.20;;
17985;SDS011;9118;48.122;11.546;2023-03-03T11:24:10;58.20;;;29.97;;
17985;SDS011;9118;48.122;11.546;2023-03-03T11:26:51;60.70;;;31.47;;
17985;SDS011;9118;48.122;11.546;2023-03-03T11:29:30;66.03;;;30.60;;
17985;SDS011;9118;48.122;11.546;2023-03-03T11:32:14;65.47;;;30.90;;
17985;SDS011;9118;48.122;11.546;2023-03-03T11:34:55;63.97;;;31.77;;
17985;SDS011;9118;48.122;11.546;2023-03-03T11:37:27;66.33;;;31.53;;
17985;SDS011;9118;48.122;11.546;2023-03-03T11:40:04;64.33;;;31.17;;
17985;SDS011;9118;48.122;11.546;2023-03-03T11:42:43;59.93;;;30.80;;
17985;SDS011;9118;48.122;11.546;2023-03-03T11:45:19;72.63;;;32.67;;
17985;SDS011;9118;48.122;11.546;2023-03-03T11:47:53;60.93;;;31.03;;
17985;SDS011;9118;48.122;11.546;2023-03-03T11:50:28;65.53;;;31.40;;
17985;SDS011;9118;48.122;11.546;2023-03-03T11:53:02;62.30;;;31.20;;
17985;SDS011;9118;48.122;11.546;2023-03-03T11:55:46;61.60;;;32.00;;
17985;SDS011;9118;48.122;11.546;2023-03-03T11:58:21;56.87;;;30.43;;
17985;SDS011;9118;48.122;11.546;2023-03-03T12:00:54;61.43;;;31.90;;
17985;SDS011;9118;48.122;11.546;2023-03-03T12:03:26;66.40;;;31.73;;
17985;SDS011;9118;48.122;11.546;2023-03-03T12:06:00;61.63;;;31.87;;
17985;SDS011;9118;48.122;11.546;2023-03-03T12:08:40;62.63;;;31.87;;
17985;SDS011;9118;48.122;11.546;2023-03-03T12:11:27;61.63;;;30.13;;
17985;SDS011;9118;48.122;11.546;2023-03-03T12:14:00;61.90;;;32.07;;
17985;SDS011;9118;48.122;11.546;2023-03-03T12:16:37;56.73;;;30.37;;
17985;SDS011;9118;48.122;11.546;2023-03-03T12:19:24;63.13;;;32.83;;
17985;SDS011;9118;48.122;11.546;2023-03-03T12:22:13;61.17;;;31.43;;
17985;SDS011;9118;48.122;11.546;2023-03-03T12:24:53;60.10;;;31.63;;
17985;SDS011;9118;48.122;11.546;2023-03-03T12:27:34;60.83;;;31.00;;
17985;SDS011;9118;48.122;11.546;2023-03-03T12:30:11;58.23;;;31.10;;
17985;SDS011;9118;48.122;11.546;2023-03-03T12:32:48;59.03;;;31.67;;
17985;SDS011;9118;48.122;11.546;2023-03-03T12:35:25;58.80;;;31.50;;
17985;SDS011;9118;48.122;11.546;2023-03-03T12:38:05;81.50;;;34.20;;
17985;SDS011;9118;48.122;11.546;2023-03-03T12:40:43;58.60;;;32.07;;
17985;SDS011;9118;48.122;11.546;2023-03-03T12:43:21;59.97;;;31.30;;
17985;SDS011;9118;48.122;11.546;2023-03-03T12:45:58;59.10;;;32.53;;
17985;SDS011;9118;48.122;11.546;2023-03-03T12:48:35;57.97;;;31.47;;
17985;SDS011;9118;48.122;11.546;2023-03-03T12:51:08;59.13;;;32.60;;
17985;SDS011;9118;48.122;11.546;2023-03-03T12:53:50;57.43;;;31.43;;
17985;SDS011;9118;48.122;11.546;2023-03-03T12:56:34;55.77;;;30.17;;
17985;SDS011;9118;48.122;11.546;2023-03-03T12:59:08;54.30;;;30.67;;
17985;SDS011;9118;48.122;11.546;2023-03-03T13:01:55;59.97;;;33.00;;
17985;SDS011;9118;48.122;11.546;2023-03-03T13:04:35;59.63;;;30.53;;
17985;SDS011;9118;48.122;11.546;2023-03-03T13:07:08;61.13;;;32.23;;
17985;SDS011;9118;48.122;11.546;2023-03-03T13:09:49;62.70;;;31.87;;
17985;SDS011;9118;48.122;11.546;2023-03-03T13:12:29;59.13;;;31.30;;
17985;SDS011;9118;48.122;11.546;2023-03-03T13:15:02;60.23;;;31.27;;
17985;SDS011;9118;48.122;11.546;2023-03-03T13:17:37;52.60;;;29.97;;
17985;SDS011;9118;48.122;11.546;2023-03-03T13:20:16;59.47;;;30.33;;
17985;SDS011;9118;48.122;11.546;2023-03-03T13:22:49;58.27;;;31.20;;
17985;SDS011;9118;48.122;11.546;2023-03-03T13:25:30;57.50;;;30.03;;
17985;SDS011;9118;48.122;11.546;2023-03-03T13:28:10;60.93;;;31.23;;
17985;SDS011;9118;48.122;11.546;2023-03-03T13:30:46;57.53;;;30.60;;
17985;SDS011;9118;48.122;11.546;2023-03-03T13:33:16;56.10;;;29.87;;
17985;SDS011;9118;48.122;11.546;2023-03-03T13:35:51;62.40;;;32.10;;
17985;SDS011;9118;48.122;11.546;2023-03-03T13:38:23;59.57;;;31.80;;
17985;SDS011;9118;48.122;11.546;2023-03-03T13:40:56;57.60;;;30.27;;
17985;SDS011;9118;48.122;11.546;2023-03-03T13:43:29;57.77;;;30.27;;
17985;SDS011;9118;48.122;11.546;2023-03-03T13:46:03;61.43;;;30.83;;
17985;SDS011;9118;48.122;11.546;2023-03-03T13:48:44;57.07;;;31.13;;
17985;SDS011;9118;48.122;11.546;2023-03-03T13:51:22;62.83;;;34.13;;
17985;SDS011;9118;48.122;11.546;2023-03-03T13:54:00;58.17;;;30.77;;
17985;SDS011;9118;48.122;11.546;2023-03-03T13:56:45;54.63;;;29.70;;
17985;SDS011;9118;48.122;11.546;2023-03-03T13:59:26;55.47;;;29.43;;
17985;SDS011;9118;48.122;11.546;2023-03-03T14:02:02;63.33;;;31.67;;
17985;SDS011;9118;48.122;11.546;2023-03-03T14:04:51;63.00;;;30.87;;
17985;SDS011;9118;48.122;11.546;2023-03-03T14:07:20;57.53;;;30.50;;
17985;SDS011;9118;48.122;11.546;2023-03-03T14:09:59;63.90;;;31.47;;
17985;SDS011;9118;48.122;11.546;2023-03-03T14:12:37;55.80;;;30.47;;
17985;SDS011;9118;48.122;11.546;2023-03-03T14:15:10;57.97;;;31.07;;
17985;SDS011;9118;48.122;11.546;2023-03-03T14:17:48;58.13;;;31.27;;
17985;SDS011;9118;48.122;11.546;2023-03-03T14:20:25;60.47;;;31.40;;
17985;SDS011;9118;48.122;11.546;2023-03-03T14:22:56;57.83;;;31.00;;
17985;SDS011;9118;48.122;11.546;2023-03-03T14:25:25;55.10;;;30.50;;
17985;SDS011;9118;48.122;11.546;2023-03-03T14:27:58;50.43;;;28.37;;
17985;SDS011;9118;48.122;11.546;2023-03-03T14:30:33;56.67;;;30.53;;
17985;SDS011;9118;48.122;11.546;2023-03-03T14:33:18;54.77;;;30.13;;
17985;SDS011;9118;48.122;11.546;2023-03-03T14:35:51;61.10;;;30.33;;
17985;SDS011;9118;48.122;11.546;2023-03-03T14:38:40;52.90;;;29.37;;
17985;SDS011;9118;48.122;11.546;2023-03-03T14:41:17;55.83;;;29.93;;
17985;SDS011;9118;48.122;11.546;2023-03-03T14:44:01;58.37;;;31.77;;
17985;SDS011;9118;48.122;11.546;2023-03-03T14:47:10;58.13;;;29.23;;
17985;SDS011;9118;48.122;11.546;2023-03-03T14:49:45;52.57;;;30.40;;
17985;SDS011;9118;48.122;11.546;2023-03-03T14:52:18;55.07;;;30.77;;
17985;SDS011;9118;48.122;11.546;2023-03-03T14:54:49;60.90;;;31.37;;
17985;SDS011;9118;48.122;11.546;2023-03-03T14:57:18;54.97;;;29.93;;
17985;SDS011;9118;48.122;11.546;2023-03-03T14:59:56;55.87;;;28.33;;
17985;SDS011;9118;48.122;11.546;2023-03-03T15:02:29;60.30;;;28.93;;
17985;SDS011;9118;48.122;11.546;2023-03-03T15:05:16;58.23;;;29.37;;
17985;SDS011;9118;48.122;11.546;2023-03-03T15:07:46;50.77;;;29.63;;
17985;SDS011;9118;48.122;11.546;2023-03-03T15:10:32;54.37;;;29.63;;
17985;SDS011;9118;48.122;11.546;2023-03-03T15:16:08;48.30;;;27.43;;
17985;SDS011;9118;48.122;11.546;2023-03-03T15:21:58;52.83;;;28.60;;
17985;SDS011;9118;48.122;11.546;2023-03-03T15:24:33;53.20;;;28.50;;